Cockerill, Kansas
Current Conditions -  °F | °C
As of 8:35 AM on Friday 28 Nov 2014 (Local Time) from KPTS Reporting Station
Clear Clear  
Wind Chill: 37°   Ceiling: Unl
Heat Index: 44°   Visibility: 10mi
Dew Point: 31°   Wind: 14mph
Humidity: 61%   Direction: 200°SSW
Pressure: 30.05"   Gusts: 23mph
Location:  37.5542°N, 94.6826°W
Report Text: KPTS 281435Z AUTO 20012G20KT 10SM CLR 07/M01 A3005 RMK AO2 T00651006
Loading
Personal Weather Stations






























Interactive Weather Map New forecast layout! Learn more

10-Day Weather Forecast

Advertisements
Track Severe Weather on mobile